sensor_id;sensor_type;location;lat;lon;timestamp;P1;durP1;ratioP1;P2;durP2;ratioP2
19985;SDS011;10154;52.474;10.768;2023-11-21T00:02:12;25.93;;;7.87;;
19985;SDS011;10154;52.474;10.768;2023-11-21T00:04:38;23.90;;;7.20;;
19985;SDS011;10154;52.474;10.768;2023-11-21T00:07:03;25.80;;;7.73;;
19985;SDS011;10154;52.474;10.768;2023-11-21T00:09:29;22.33;;;7.10;;
19985;SDS011;10154;52.474;10.768;2023-11-21T00:11:54;19.10;;;6.93;;
19985;SDS011;10154;52.474;10.768;2023-11-21T00:14:19;28.83;;;7.50;;
19985;SDS011;10154;52.474;10.768;2023-11-21T00:16:45;21.73;;;7.77;;
19985;SDS011;10154;52.474;10.768;2023-11-21T00:19:11;20.80;;;7.80;;
19985;SDS011;10154;52.474;10.768;2023-11-21T00:21:37;22.83;;;7.67;;
19985;SDS011;10154;52.474;10.768;2023-11-21T00:24:02;28.17;;;7.70;;
19985;SDS011;10154;52.474;10.768;2023-11-21T00:26:28;32.63;;;7.70;;
19985;SDS011;10154;52.474;10.768;2023-11-21T00:28:53;30.80;;;8.03;;
19985;SDS011;10154;52.474;10.768;2023-11-21T00:31:19;20.53;;;7.77;;
19985;SDS011;10154;52.474;10.768;2023-11-21T00:33:45;27.00;;;8.00;;
19985;SDS011;10154;52.474;10.768;2023-11-21T00:36:10;23.33;;;8.10;;
19985;SDS011;10154;52.474;10.768;2023-11-21T00:38:36;34.80;;;9.10;;
19985;SDS011;10154;52.474;10.768;2023-11-21T00:41:03;24.83;;;8.57;;
19985;SDS011;10154;52.474;10.768;2023-11-21T00:43:28;27.27;;;7.70;;
19985;SDS011;10154;52.474;10.768;2023-11-21T00:45:54;26.10;;;8.83;;
19985;SDS011;10154;52.474;10.768;2023-11-21T00:48:19;22.23;;;8.50;;
19985;SDS011;10154;52.474;10.768;2023-11-21T00:50:44;28.00;;;7.50;;
19985;SDS011;10154;52.474;10.768;2023-11-21T00:53:10;33.17;;;9.07;;
19985;SDS011;10154;52.474;10.768;2023-11-21T00:55:36;31.03;;;8.87;;
19985;SDS011;10154;52.474;10.768;2023-11-21T00:58:02;29.00;;;8.70;;
19985;SDS011;10154;52.474;10.768;2023-11-21T01:00:29;25.03;;;8.77;;
19985;SDS011;10154;52.474;10.768;2023-11-21T01:02:54;30.70;;;8.30;;
19985;SDS011;10154;52.474;10.768;2023-11-21T01:05:20;32.77;;;9.93;;
19985;SDS011;10154;52.474;10.768;2023-11-21T01:07:45;25.17;;;8.00;;
19985;SDS011;10154;52.474;10.768;2023-11-21T01:10:11;23.40;;;8.00;;
19985;SDS011;10154;52.474;10.768;2023-11-21T01:12:37;32.87;;;8.87;;
19985;SDS011;10154;52.474;10.768;2023-11-21T01:15:03;26.70;;;8.47;;
19985;SDS011;10154;52.474;10.768;2023-11-21T01:17:32;30.40;;;9.03;;
19985;SDS011;10154;52.474;10.768;2023-11-21T01:19:59;23.53;;;8.63;;
19985;SDS011;10154;52.474;10.768;2023-11-21T01:22:25;32.00;;;10.10;;
19985;SDS011;10154;52.474;10.768;2023-11-21T01:24:51;37.27;;;10.03;;
19985;SDS011;10154;52.474;10.768;2023-11-21T01:27:18;26.47;;;8.73;;
19985;SDS011;10154;52.474;10.768;2023-11-21T01:29:43;27.10;;;9.70;;
19985;SDS011;10154;52.474;10.768;2023-11-21T01:32:09;39.27;;;9.60;;
19985;SDS011;10154;52.474;10.768;2023-11-21T01:34:35;24.97;;;9.47;;
19985;SDS011;10154;52.474;10.768;2023-11-21T01:37:01;37.67;;;10.37;;
19985;SDS011;10154;52.474;10.768;2023-11-21T01:39:29;31.87;;;9.37;;
19985;SDS011;10154;52.474;10.768;2023-11-21T01:41:55;33.70;;;9.93;;
19985;SDS011;10154;52.474;10.768;2023-11-21T01:44:23;33.97;;;10.60;;
19985;SDS011;10154;52.474;10.768;2023-11-21T01:46:49;37.77;;;10.07;;
19985;SDS011;10154;52.474;10.768;2023-11-21T01:49:16;35.37;;;10.37;;
19985;SDS011;10154;52.474;10.768;2023-11-21T01:51:43;34.33;;;10.30;;
19985;SDS011;10154;52.474;10.768;2023-11-21T01:54:11;30.63;;;10.73;;
19985;SDS011;10154;52.474;10.768;2023-11-21T01:56:37;35.80;;;9.33;;
19985;SDS011;10154;52.474;10.768;2023-11-21T01:59:02;32.00;;;10.67;;
19985;SDS011;10154;52.474;10.768;2023-11-21T02:01:28;33.57;;;10.73;;
19985;SDS011;10154;52.474;10.768;2023-11-21T02:03:53;36.83;;;11.27;;
19985;SDS011;10154;52.474;10.768;2023-11-21T02:06:18;38.20;;;10.60;;
19985;SDS011;10154;52.474;10.768;2023-11-21T02:08:44;30.90;;;10.90;;
19985;SDS011;10154;52.474;10.768;2023-11-21T02:11:10;26.47;;;10.67;;
19985;SDS011;10154;52.474;10.768;2023-11-21T02:13:38;38.70;;;9.30;;
19985;SDS011;10154;52.474;10.768;2023-11-21T02:16:08;32.53;;;9.90;;
19985;SDS011;10154;52.474;10.768;2023-11-21T02:18:34;29.03;;;10.17;;
19985;SDS011;10154;52.474;10.768;2023-11-21T02:21:03;36.97;;;10.47;;
19985;SDS011;10154;52.474;10.768;2023-11-21T02:23:29;36.57;;;10.80;;
19985;SDS011;10154;52.474;10.768;2023-11-21T02:25:55;34.80;;;10.67;;
19985;SDS011;10154;52.474;10.768;2023-11-21T02:28:21;32.87;;;10.40;;
19985;SDS011;10154;52.474;10.768;2023-11-21T02:30:51;35.27;;;10.97;;
19985;SDS011;10154;52.474;10.768;2023-11-21T02:33:21;35.80;;;10.93;;
19985;SDS011;10154;52.474;10.768;2023-11-21T02:35:50;29.43;;;9.97;;
19985;SDS011;10154;52.474;10.768;2023-11-21T02:38:19;38.20;;;11.47;;
19985;SDS011;10154;52.474;10.768;2023-11-21T02:40:45;27.33;;;10.10;;
19985;SDS011;10154;52.474;10.768;2023-11-21T02:43:11;28.50;;;10.20;;
19985;SDS011;10154;52.474;10.768;2023-11-21T02:45:36;28.60;;;9.27;;
19985;SDS011;10154;52.474;10.768;2023-11-21T02:48:02;27.83;;;11.07;;
19985;SDS011;10154;52.474;10.768;2023-11-21T02:50:27;30.63;;;10.13;;
19985;SDS011;10154;52.474;10.768;2023-11-21T02:52:53;34.47;;;11.03;;
19985;SDS011;10154;52.474;10.768;2023-11-21T02:55:19;28.60;;;11.03;;
19985;SDS011;10154;52.474;10.768;2023-11-21T02:57:45;30.83;;;10.23;;
19985;SDS011;10154;52.474;10.768;2023-11-21T03:00:10;40.83;;;11.30;;
19985;SDS011;10154;52.474;10.768;2023-11-21T03:02:37;32.27;;;10.67;;
19985;SDS011;10154;52.474;10.768;2023-11-21T03:05:04;31.53;;;11.27;;
19985;SDS011;10154;52.474;10.768;2023-11-21T03:07:30;32.97;;;10.97;;
19985;SDS011;10154;52.474;10.768;2023-11-21T03:09:56;26.30;;;10.67;;
19985;SDS011;10154;52.474;10.768;2023-11-21T03:12:21;31.20;;;11.07;;
19985;SDS011;10154;52.474;10.768;2023-11-21T03:14:47;28.70;;;10.37;;
19985;SDS011;10154;52.474;10.768;2023-11-21T03:17:12;34.57;;;11.73;;
19985;SDS011;10154;52.474;10.768;2023-11-21T03:19:40;30.50;;;10.57;;
19985;SDS011;10154;52.474;10.768;2023-11-21T03:22:06;29.63;;;11.07;;
19985;SDS011;10154;52.474;10.768;2023-11-21T03:24:32;30.73;;;11.17;;
19985;SDS011;10154;52.474;10.768;2023-11-21T03:26:57;32.80;;;11.33;;
19985;SDS011;10154;52.474;10.768;2023-11-21T03:29:23;32.83;;;12.13;;
19985;SDS011;10154;52.474;10.768;2023-11-21T03:31:48;36.53;;;11.87;;
19985;SDS011;10154;52.474;10.768;2023-11-21T03:34:23;29.13;;;11.73;;
19985;SDS011;10154;52.474;10.768;2023-11-21T03:36:50;26.67;;;11.57;;
19985;SDS011;10154;52.474;10.768;2023-11-21T03:39:16;32.33;;;11.10;;
19985;SDS011;10154;52.474;10.768;2023-11-21T03:41:41;33.00;;;11.47;;
19985;SDS011;10154;52.474;10.768;2023-11-21T03:44:06;30.87;;;11.27;;
19985;SDS011;10154;52.474;10.768;2023-11-21T03:46:32;32.57;;;10.97;;
19985;SDS011;10154;52.474;10.768;2023-11-21T03:48:57;30.63;;;10.87;;
19985;SDS011;10154;52.474;10.768;2023-11-21T03:51:23;30.40;;;11.53;;
19985;SDS011;10154;52.474;10.768;2023-11-21T03:53:48;26.60;;;10.43;;
19985;SDS011;10154;52.474;10.768;2023-11-21T03:56:14;28.40;;;11.40;;
19985;SDS011;10154;52.474;10.768;2023-11-21T03:58:39;27.03;;;11.20;;
19985;SDS011;10154;52.474;10.768;2023-11-21T04:01:05;28.93;;;10.90;;
19985;SDS011;10154;52.474;10.768;2023-11-21T04:03:31;28.57;;;10.40;;
19985;SDS011;10154;52.474;10.768;2023-11-21T04:05:56;26.97;;;11.00;;
19985;SDS011;10154;52.474;10.768;2023-11-21T04:08:22;26.67;;;10.73;;
19985;SDS011;10154;52.474;10.768;2023-11-21T04:10:47;31.10;;;11.63;;
19985;SDS011;10154;52.474;10.768;2023-11-21T04:13:13;21.23;;;8.77;;
19985;SDS011;10154;52.474;10.768;2023-11-21T04:15:39;32.27;;;12.37;;
19985;SDS011;10154;52.474;10.768;2023-11-21T04:18:04;28.53;;;11.23;;
19985;SDS011;10154;52.474;10.768;2023-11-21T04:20:30;18.23;;;6.70;;
19985;SDS011;10154;52.474;10.768;2023-11-21T04:22:55;11.63;;;4.67;;
19985;SDS011;10154;52.474;10.768;2023-11-21T04:25:21;8.23;;;3.30;;
19985;SDS011;10154;52.474;10.768;2023-11-21T04:27:48;6.40;;;3.37;;
19985;SDS011;10154;52.474;10.768;2023-11-21T04:30:14;7.20;;;2.83;;
19985;SDS011;10154;52.474;10.768;2023-11-21T04:32:39;5.73;;;2.53;;
19985;SDS011;10154;52.474;10.768;2023-11-21T04:35:05;6.27;;;2.70;;
19985;SDS011;10154;52.474;10.768;2023-11-21T04:37:31;5.00;;;2.80;;
19985;SDS011;10154;52.474;10.768;2023-11-21T04:39:56;5.93;;;2.80;;
19985;SDS011;10154;52.474;10.768;2023-11-21T04:42:22;6.67;;;3.43;;
19985;SDS011;10154;52.474;10.768;2023-11-21T04:44:47;10.10;;;3.83;;
19985;SDS011;10154;52.474;10.768;2023-11-21T04:47:13;8.37;;;4.63;;
19985;SDS011;10154;52.474;10.768;2023-11-21T04:49:41;7.03;;;3.77;;
19985;SDS011;10154;52.474;10.768;2023-11-21T04:52:07;6.87;;;3.60;;
19985;SDS011;10154;52.474;10.768;2023-11-21T04:54:34;7.13;;;4.10;;
19985;SDS011;10154;52.474;10.768;2023-11-21T04:57:00;7.23;;;3.83;;
19985;SDS011;10154;52.474;10.768;2023-11-21T04:59:25;6.90;;;3.57;;
19985;SDS011;10154;52.474;10.768;2023-11-21T05:01:52;7.10;;;4.20;;
19985;SDS011;10154;52.474;10.768;2023-11-21T05:04:18;9.43;;;4.80;;
19985;SDS011;10154;52.474;10.768;2023-11-21T05:06:44;10.57;;;5.20;;
19985;SDS011;10154;52.474;10.768;2023-11-21T05:09:09;9.23;;;5.17;;
19985;SDS011;10154;52.474;10.768;2023-11-21T05:11:37;13.27;;;6.00;;
19985;SDS011;10154;52.474;10.768;2023-11-21T05:14:02;15.43;;;6.80;;
19985;SDS011;10154;52.474;10.768;2023-11-21T05:16:29;13.73;;;7.10;;
19985;SDS011;10154;52.474;10.768;2023-11-21T05:18:54;16.13;;;6.87;;
19985;SDS011;10154;52.474;10.768;2023-11-21T05:21:25;14.77;;;7.53;;
19985;SDS011;10154;52.474;10.768;2023-11-21T05:23:51;14.93;;;7.53;;
19985;SDS011;10154;52.474;10.768;2023-11-21T05:26:16;18.07;;;8.10;;
19985;SDS011;10154;52.474;10.768;2023-11-21T05:28:42;16.93;;;7.93;;
19985;SDS011;10154;52.474;10.768;2023-11-21T05:31:07;18.90;;;8.27;;
19985;SDS011;10154;52.474;10.768;2023-11-21T05:33:32;18.70;;;8.87;;
19985;SDS011;10154;52.474;10.768;2023-11-21T05:35:58;20.07;;;9.13;;
19985;SDS011;10154;52.474;10.768;2023-11-21T05:38:23;25.73;;;10.37;;
19985;SDS011;10154;52.474;10.768;2023-11-21T05:40:49;19.13;;;9.47;;
19985;SDS011;10154;52.474;10.768;2023-11-21T05:43:15;23.00;;;9.97;;
19985;SDS011;10154;52.474;10.768;2023-11-21T05:45:40;17.90;;;9.13;;
19985;SDS011;10154;52.474;10.768;2023-11-21T05:48:05;17.23;;;8.63;;
19985;SDS011;10154;52.474;10.768;2023-11-21T05:50:31;21.60;;;8.93;;
19985;SDS011;10154;52.474;10.768;2023-11-21T05:52:57;19.17;;;8.80;;
19985;SDS011;10154;52.474;10.768;2023-11-21T05:55:25;15.83;;;8.33;;
19985;SDS011;10154;52.474;10.768;2023-11-21T05:57:50;17.53;;;8.77;;
19985;SDS011;10154;52.474;10.768;2023-11-21T06:00:16;18.17;;;8.07;;
19985;SDS011;10154;52.474;10.768;2023-11-21T06:02:50;17.03;;;8.77;;
19985;SDS011;10154;52.474;10.768;2023-11-21T06:05:18;17.97;;;8.63;;
19985;SDS011;10154;52.474;10.768;2023-11-21T06:07:44;18.10;;;9.07;;
19985;SDS011;10154;52.474;10.768;2023-11-21T06:10:10;17.40;;;8.17;;
19985;SDS011;10154;52.474;10.768;2023-11-21T06:12:37;18.63;;;8.53;;
19985;SDS011;10154;52.474;10.768;2023-11-21T06:15:05;16.33;;;8.70;;
19985;SDS011;10154;52.474;10.768;2023-11-21T06:17:33;17.73;;;9.00;;
19985;SDS011;10154;52.474;10.768;2023-11-21T06:20:01;17.17;;;8.57;;
19985;SDS011;10154;52.474;10.768;2023-11-21T06:22:34;18.70;;;8.63;;
19985;SDS011;10154;52.474;10.768;2023-11-21T06:25:02;21.00;;;9.33;;
19985;SDS011;10154;52.474;10.768;2023-11-21T06:27:31;19.70;;;8.63;;
19985;SDS011;10154;52.474;10.768;2023-11-21T06:29:57;22.37;;;9.43;;
19985;SDS011;10154;52.474;10.768;2023-11-21T06:32:22;19.10;;;9.37;;
19985;SDS011;10154;52.474;10.768;2023-11-21T06:34:47;21.20;;;9.30;;
19985;SDS011;10154;52.474;10.768;2023-11-21T06:37:13;17.63;;;8.73;;
19985;SDS011;10154;52.474;10.768;2023-11-21T06:39:38;19.83;;;9.33;;
19985;SDS011;10154;52.474;10.768;2023-11-21T06:42:03;19.40;;;9.30;;
19985;SDS011;10154;52.474;10.768;2023-11-21T06:44:29;21.63;;;10.07;;
19985;SDS011;10154;52.474;10.768;2023-11-21T06:46:55;25.43;;;9.73;;
19985;SDS011;10154;52.474;10.768;2023-11-21T06:49:21;23.00;;;9.33;;
19985;SDS011;10154;52.474;10.768;2023-11-21T06:51:48;21.13;;;10.20;;
19985;SDS011;10154;52.474;10.768;2023-11-21T06:54:13;20.90;;;9.37;;
19985;SDS011;10154;52.474;10.768;2023-11-21T06:56:39;22.20;;;9.33;;
19985;SDS011;10154;52.474;10.768;2023-11-21T06:59:05;21.57;;;9.70;;
19985;SDS011;10154;52.474;10.768;2023-11-21T07:01:30;19.97;;;9.53;;
19985;SDS011;10154;52.474;10.768;2023-11-21T07:03:59;21.57;;;9.97;;
19985;SDS011;10154;52.474;10.768;2023-11-21T07:06:24;22.30;;;10.30;;
19985;SDS011;10154;52.474;10.768;2023-11-21T07:08:49;24.13;;;10.43;;
19985;SDS011;10154;52.474;10.768;2023-11-21T07:11:15;21.97;;;10.03;;
19985;SDS011;10154;52.474;10.768;2023-11-21T07:13:40;20.50;;;9.00;;
19985;SDS011;10154;52.474;10.768;2023-11-21T07:16:06;21.90;;;9.47;;
19985;SDS011;10154;52.474;10.768;2023-11-21T07:18:31;20.63;;;9.20;;
19985;SDS011;10154;52.474;10.768;2023-11-21T07:20:57;19.00;;;8.43;;
19985;SDS011;10154;52.474;10.768;2023-11-21T07:23:23;20.60;;;8.90;;
19985;SDS011;10154;52.474;10.768;2023-11-21T07:25:49;19.10;;;9.27;;
19985;SDS011;10154;52.474;10.768;2023-11-21T07:28:14;17.97;;;8.13;;
19985;SDS011;10154;52.474;10.768;2023-11-21T07:30:40;17.70;;;8.63;;
19985;SDS011;10154;52.474;10.768;2023-11-21T07:33:05;18.60;;;8.67;;
19985;SDS011;10154;52.474;10.768;2023-11-21T07:35:32;19.07;;;8.80;;
19985;SDS011;10154;52.474;10.768;2023-11-21T07:37:57;19.03;;;8.33;;
19985;SDS011;10154;52.474;10.768;2023-11-21T07:40:23;17.97;;;8.57;;
19985;SDS011;10154;52.474;10.768;2023-11-21T07:42:48;18.03;;;8.47;;
19985;SDS011;10154;52.474;10.768;2023-11-21T07:45:15;17.87;;;8.63;;
19985;SDS011;10154;52.474;10.768;2023-11-21T07:47:40;18.23;;;8.43;;
19985;SDS011;10154;52.474;10.768;2023-11-21T07:50:06;15.10;;;7.93;;
19985;SDS011;10154;52.474;10.768;2023-11-21T07:52:32;16.10;;;7.50;;
19985;SDS011;10154;52.474;10.768;2023-11-21T07:54:58;15.27;;;7.17;;
19985;SDS011;10154;52.474;10.768;2023-11-21T07:57:23;12.90;;;6.63;;
19985;SDS011;10154;52.474;10.768;2023-11-21T07:59:49;13.57;;;7.00;;
19985;SDS011;10154;52.474;10.768;2023-11-21T08:02:14;14.77;;;6.70;;
19985;SDS011;10154;52.474;10.768;2023-11-21T08:04:41;13.07;;;6.40;;
19985;SDS011;10154;52.474;10.768;2023-11-21T08:07:07;14.47;;;7.20;;
19985;SDS011;10154;52.474;10.768;2023-11-21T08:09:32;13.10;;;7.07;;
19985;SDS011;10154;52.474;10.768;2023-11-21T08:11:59;13.60;;;6.90;;
19985;SDS011;10154;52.474;10.768;2023-11-21T08:14:25;15.27;;;7.70;;
19985;SDS011;10154;52.474;10.768;2023-11-21T08:16:51;13.83;;;6.97;;
19985;SDS011;10154;52.474;10.768;2023-11-21T08:19:22;16.33;;;7.23;;
19985;SDS011;10154;52.474;10.768;2023-11-21T08:21:49;15.87;;;7.37;;
19985;SDS011;10154;52.474;10.768;2023-11-21T08:24:15;14.37;;;7.53;;
19985;SDS011;10154;52.474;10.768;2023-11-21T08:26:41;14.67;;;7.30;;
19985;SDS011;10154;52.474;10.768;2023-11-21T08:29:06;15.57;;;7.43;;
19985;SDS011;10154;52.474;10.768;2023-11-21T08:31:34;14.37;;;7.07;;
19985;SDS011;10154;52.474;10.768;2023-11-21T08:33:59;14.67;;;7.70;;
19985;SDS011;10154;52.474;10.768;2023-11-21T08:36:28;15.67;;;7.43;;
19985;SDS011;10154;52.474;10.768;2023-11-21T08:38:53;12.77;;;6.43;;
19985;SDS011;10154;52.474;10.768;2023-11-21T08:41:18;13.93;;;7.00;;
19985;SDS011;10154;52.474;10.768;2023-11-21T08:43:47;14.07;;;6.07;;
19985;SDS011;10154;52.474;10.768;2023-11-21T08:46:13;12.60;;;6.33;;
19985;SDS011;10154;52.474;10.768;2023-11-21T08:48:40;13.10;;;5.97;;
19985;SDS011;10154;52.474;10.768;2023-11-21T08:51:06;11.43;;;5.87;;
19985;SDS011;10154;52.474;10.768;2023-11-21T08:53:31;10.60;;;5.87;;
19985;SDS011;10154;52.474;10.768;2023-11-21T08:55:57;10.50;;;5.97;;
19985;SDS011;10154;52.474;10.768;2023-11-21T08:58:23;11.80;;;6.10;;
19985;SDS011;10154;52.474;10.768;2023-11-21T09:00:49;13.53;;;6.70;;
19985;SDS011;10154;52.474;10.768;2023-11-21T09:03:14;12.40;;;6.20;;
19985;SDS011;10154;52.474;10.768;2023-11-21T09:05:39;11.17;;;6.20;;
19985;SDS011;10154;52.474;10.768;2023-11-21T09:08:05;10.97;;;6.00;;
19985;SDS011;10154;52.474;10.768;2023-11-21T09:10:31;12.50;;;6.00;;
19985;SDS011;10154;52.474;10.768;2023-11-21T09:12:58;10.53;;;5.97;;
19985;SDS011;10154;52.474;10.768;2023-11-21T09:15:24;10.23;;;5.60;;
19985;SDS011;10154;52.474;10.768;2023-11-21T09:17:50;10.60;;;5.80;;
19985;SDS011;10154;52.474;10.768;2023-11-21T09:20:15;10.90;;;5.93;;
19985;SDS011;10154;52.474;10.768;2023-11-21T09:22:41;9.70;;;5.93;;
19985;SDS011;10154;52.474;10.768;2023-11-21T09:25:06;13.00;;;5.70;;
19985;SDS011;10154;52.474;10.768;2023-11-21T09:27:33;11.87;;;5.93;;
19985;SDS011;10154;52.474;10.768;2023-11-21T09:30:00;9.20;;;5.33;;
19985;SDS011;10154;52.474;10.768;2023-11-21T09:32:26;11.23;;;5.23;;
19985;SDS011;10154;52.474;10.768;2023-11-21T09:34:51;11.93;;;6.20;;
19985;SDS011;10154;52.474;10.768;2023-11-21T09:37:17;11.63;;;5.50;;
19985;SDS011;10154;52.474;10.768;2023-11-21T09:39:42;10.67;;;5.80;;
19985;SDS011;10154;52.474;10.768;2023-11-21T09:42:12;11.50;;;5.70;;
19985;SDS011;10154;52.474;10.768;2023-11-21T09:44:50;10.00;;;5.50;;
19985;SDS011;10154;52.474;10.768;2023-11-21T09:47:21;10.53;;;5.53;;
19985;SDS011;10154;52.474;10.768;2023-11-21T09:49:48;13.40;;;5.67;;
19985;SDS011;10154;52.474;10.768;2023-11-21T09:52:26;9.67;;;5.67;;
19985;SDS011;10154;52.474;10.768;2023-11-21T09:54:53;10.93;;;5.77;;
19985;SDS011;10154;52.474;10.768;2023-11-21T09:57:19;10.03;;;5.80;;
19985;SDS011;10154;52.474;10.768;2023-11-21T09:59:46;10.43;;;5.60;;
19985;SDS011;10154;52.474;10.768;2023-11-21T10:02:12;12.27;;;5.67;;
19985;SDS011;10154;52.474;10.768;2023-11-21T10:04:38;13.50;;;6.27;;
19985;SDS011;10154;52.474;10.768;2023-11-21T10:07:04;11.37;;;6.00;;
19985;SDS011;10154;52.474;10.768;2023-11-21T10:09:34;10.97;;;5.40;;
19985;SDS011;10154;52.474;10.768;2023-11-21T10:12:02;12.60;;;6.17;;
19985;SDS011;10154;52.474;10.768;2023-11-21T10:14:31;8.90;;;5.33;;
19985;SDS011;10154;52.474;10.768;2023-11-21T10:16:57;10.67;;;5.47;;
19985;SDS011;10154;52.474;10.768;2023-11-21T10:19:23;9.53;;;5.43;;
19985;SDS011;10154;52.474;10.768;2023-11-21T10:21:49;9.57;;;5.40;;
19985;SDS011;10154;52.474;10.768;2023-11-21T10:24:15;10.40;;;4.73;;
19985;SDS011;10154;52.474;10.768;2023-11-21T10:26:41;8.33;;;5.00;;
19985;SDS011;10154;52.474;10.768;2023-11-21T10:29:07;9.00;;;4.73;;
19985;SDS011;10154;52.474;10.768;2023-11-21T10:31:32;9.50;;;5.23;;
19985;SDS011;10154;52.474;10.768;2023-11-21T10:36:38;8.47;;;5.57;;
19985;SDS011;10154;52.474;10.768;2023-11-21T10:39:03;11.73;;;5.70;;
19985;SDS011;10154;52.474;10.768;2023-11-21T10:41:28;10.73;;;5.33;;
19985;SDS011;10154;52.474;10.768;2023-11-21T10:43:54;10.67;;;5.40;;
19985;SDS011;10154;52.474;10.768;2023-11-21T10:46:21;8.73;;;4.97;;
19985;SDS011;10154;52.474;10.768;2023-11-21T10:48:51;10.40;;;5.27;;
19985;SDS011;10154;52.474;10.768;2023-11-21T10:51:20;8.40;;;5.13;;
19985;SDS011;10154;52.474;10.768;2023-11-21T10:53:45;9.63;;;4.90;;
19985;SDS011;10154;52.474;10.768;2023-11-21T10:56:11;7.23;;;4.53;;
19985;SDS011;10154;52.474;10.768;2023-11-21T10:58:42;8.00;;;4.90;;
19985;SDS011;10154;52.474;10.768;2023-11-21T11:01:08;7.77;;;4.40;;
19985;SDS011;10154;52.474;10.768;2023-11-21T11:03:37;8.43;;;4.47;;
19985;SDS011;10154;52.474;10.768;2023-11-21T11:06:05;7.07;;;4.40;;
19985;SDS011;10154;52.474;10.768;2023-11-21T11:08:36;7.20;;;4.37;;
19985;SDS011;10154;52.474;10.768;2023-11-21T11:11:05;9.57;;;4.90;;
19985;SDS011;10154;52.474;10.768;2023-11-21T11:13:31;7.90;;;4.10;;
19985;SDS011;10154;52.474;10.768;2023-11-21T11:16:00;8.73;;;4.30;;
19985;SDS011;10154;52.474;10.768;2023-11-21T11:18:32;7.53;;;4.53;;
19985;SDS011;10154;52.474;10.768;2023-11-21T11:21:10;9.00;;;4.07;;
19985;SDS011;10154;52.474;10.768;2023-11-21T11:24:05;6.30;;;3.90;;
19985;SDS011;10154;52.474;10.768;2023-11-21T11:26:51;7.43;;;3.70;;
19985;SDS011;10154;52.474;10.768;2023-11-21T11:32:12;6.23;;;3.97;;
19985;SDS011;10154;52.474;10.768;2023-11-21T11:34:50;5.33;;;3.13;;
19985;SDS011;10154;52.474;10.768;2023-11-21T11:37:20;6.90;;;3.53;;
19985;SDS011;10154;52.474;10.768;2023-11-21T11:39:48;6.37;;;3.77;;
19985;SDS011;10154;52.474;10.768;2023-11-21T11:42:15;7.53;;;4.07;;
19985;SDS011;10154;52.474;10.768;2023-11-21T11:47:20;6.97;;;3.93;;
19985;SDS011;10154;52.474;10.768;2023-11-21T11:49:58;7.30;;;3.43;;
19985;SDS011;10154;52.474;10.768;2023-11-21T11:52:38;5.73;;;3.37;;
19985;SDS011;10154;52.474;10.768;2023-11-21T11:55:05;7.10;;;3.80;;
19985;SDS011;10154;52.474;10.768;2023-11-21T11:57:32;11.30;;;4.27;;
19985;SDS011;10154;52.474;10.768;2023-11-21T12:02:40;9.97;;;3.03;;
19985;SDS011;10154;52.474;10.768;2023-11-21T12:05:09;7.40;;;3.33;;
19985;SDS011;10154;52.474;10.768;2023-11-21T12:10:15;5.17;;;2.80;;
19985;SDS011;10154;52.474;10.768;2023-11-21T12:12:46;4.90;;;2.90;;
19985;SDS011;10154;52.474;10.768;2023-11-21T12:15:12;5.83;;;3.00;;
19985;SDS011;10154;52.474;10.768;2023-11-21T12:17:38;6.87;;;2.90;;
19985;SDS011;10154;52.474;10.768;2023-11-21T12:20:05;5.37;;;3.03;;
19985;SDS011;10154;52.474;10.768;2023-11-21T12:22:39;5.73;;;3.03;;
19985;SDS011;10154;52.474;10.768;2023-11-21T12:25:23;6.20;;;3.43;;
19985;SDS011;10154;52.474;10.768;2023-11-21T12:27:52;6.97;;;3.13;;
19985;SDS011;10154;52.474;10.768;2023-11-21T12:30:18;4.80;;;2.93;;
19985;SDS011;10154;52.474;10.768;2023-11-21T12:32:50;3.70;;;2.50;;
19985;SDS011;10154;52.474;10.768;2023-11-21T12:35:17;6.87;;;3.00;;
19985;SDS011;10154;52.474;10.768;2023-11-21T12:37:44;4.27;;;2.73;;
19985;SDS011;10154;52.474;10.768;2023-11-21T12:40:10;5.03;;;2.80;;
19985;SDS011;10154;52.474;10.768;2023-11-21T12:42:39;4.27;;;2.70;;
19985;SDS011;10154;52.474;10.768;2023-11-21T12:45:24;4.30;;;2.70;;
19985;SDS011;10154;52.474;10.768;2023-11-21T12:47:55;7.23;;;2.50;;
19985;SDS011;10154;52.474;10.768;2023-11-21T12:50:24;3.47;;;2.43;;
19985;SDS011;10154;52.474;10.768;2023-11-21T12:52:53;7.23;;;2.40;;
19985;SDS011;10154;52.474;10.768;2023-11-21T12:55:21;7.27;;;2.57;;
19985;SDS011;10154;52.474;10.768;2023-11-21T12:57:53;4.90;;;2.50;;
19985;SDS011;10154;52.474;10.768;2023-11-21T13:00:20;5.10;;;2.53;;
19985;SDS011;10154;52.474;10.768;2023-11-21T13:02:54;3.90;;;2.50;;
19985;SDS011;10154;52.474;10.768;2023-11-21T13:05:35;4.40;;;2.50;;
19985;SDS011;10154;52.474;10.768;2023-11-21T13:08:04;5.47;;;2.60;;
19985;SDS011;10154;52.474;10.768;2023-11-21T13:10:32;4.90;;;2.67;;
19985;SDS011;10154;52.474;10.768;2023-11-21T13:13:01;4.17;;;2.40;;
19985;SDS011;10154;52.474;10.768;2023-11-21T13:15:30;6.03;;;2.80;;
19985;SDS011;10154;52.474;10.768;2023-11-21T13:18:00;6.63;;;2.93;;
19985;SDS011;10154;52.474;10.768;2023-11-21T13:20:26;4.27;;;2.63;;
19985;SDS011;10154;52.474;10.768;2023-11-21T13:22:54;5.93;;;2.90;;
19985;SDS011;10154;52.474;10.768;2023-11-21T13:25:27;8.00;;;4.07;;
19985;SDS011;10154;52.474;10.768;2023-11-21T13:27:56;6.83;;;3.70;;
19985;SDS011;10154;52.474;10.768;2023-11-21T13:30:25;5.07;;;2.50;;
19985;SDS011;10154;52.474;10.768;2023-11-21T13:32:55;7.77;;;3.40;;
19985;SDS011;10154;52.474;10.768;2023-11-21T13:35:30;6.80;;;3.70;;
19985;SDS011;10154;52.474;10.768;2023-11-21T13:38:12;5.17;;;2.30;;
19985;SDS011;10154;52.474;10.768;2023-11-21T13:40:38;4.30;;;2.60;;
19985;SDS011;10154;52.474;10.768;2023-11-21T13:43:10;3.70;;;2.50;;
19985;SDS011;10154;52.474;10.768;2023-11-21T13:45:40;5.13;;;3.10;;
19985;SDS011;10154;52.474;10.768;2023-11-21T13:48:07;5.83;;;3.20;;
19985;SDS011;10154;52.474;10.768;2023-11-21T13:50:36;7.53;;;3.23;;
19985;SDS011;10154;52.474;10.768;2023-11-21T13:53:02;5.70;;;2.70;;
19985;SDS011;10154;52.474;10.768;2023-11-21T13:55:35;5.80;;;3.27;;
19985;SDS011;10154;52.474;10.768;2023-11-21T13:58:02;5.13;;;2.70;;
19985;SDS011;10154;52.474;10.768;2023-11-21T14:00:29;6.43;;;2.37;;
19985;SDS011;10154;52.474;10.768;2023-11-21T14:03:13;4.57;;;2.70;;
19985;SDS011;10154;52.474;10.768;2023-11-21T14:05:45;6.47;;;2.70;;
19985;SDS011;10154;52.474;10.768;2023-11-21T14:08:20;4.50;;;2.57;;
19985;SDS011;10154;52.474;10.768;2023-11-21T14:10:49;5.83;;;2.67;;
19985;SDS011;10154;52.474;10.768;2023-11-21T14:13:18;5.80;;;2.87;;
19985;SDS011;10154;52.474;10.768;2023-11-21T14:15:45;5.53;;;2.60;;
19985;SDS011;10154;52.474;10.768;2023-11-21T14:18:11;5.90;;;2.80;;
19985;SDS011;10154;52.474;10.768;2023-11-21T14:20:39;4.20;;;2.60;;
19985;SDS011;10154;52.474;10.768;2023-11-21T14:23:06;4.13;;;2.60;;
19985;SDS011;10154;52.474;10.768;2023-11-21T14:25:34;4.13;;;2.50;;
19985;SDS011;10154;52.474;10.768;2023-11-21T14:28:02;3.50;;;2.30;;
19985;SDS011;10154;52.474;10.768;2023-11-21T14:30:31;5.03;;;2.73;;
19985;SDS011;10154;52.474;10.768;2023-11-21T14:32:59;3.33;;;2.30;;
19985;SDS011;10154;52.474;10.768;2023-11-21T14:35:24;5.10;;;2.43;;
19985;SDS011;10154;52.474;10.768;2023-11-21T14:37:51;4.27;;;2.53;;